sensor_id;sensor_type;location;lat;lon;timestamp;pressure;altitude;pressure_sealevel;temperature;humidity
74578;BME280;63173;49.086;33.418;2022-12-31T00:01:17;101197.44;;;1.90;90.73
74578;BME280;63173;49.086;33.418;2022-12-31T00:03:44;101200.34;;;1.76;90.97
74578;BME280;63173;49.086;33.418;2022-12-31T00:06:17;101200.75;;;1.79;91.69
74578;BME280;63173;49.086;33.418;2022-12-31T00:08:44;101198.88;;;1.86;91.47
74578;BME280;63173;49.086;33.418;2022-12-31T00:11:10;101193.31;;;1.88;91.60
74578;BME280;63173;49.086;33.418;2022-12-31T00:13:36;101196.00;;;1.95;91.08
74578;BME280;63173;49.086;33.418;2022-12-31T00:16:06;101202.16;;;1.95;91.01
74578;BME280;63173;49.086;33.418;2022-12-31T00:18:32;101200.50;;;1.94;91.09
74578;BME280;63173;49.086;33.418;2022-12-31T00:20:57;101203.78;;;2.03;91.31
74578;BME280;63173;49.086;33.418;2022-12-31T00:23:23;101207.28;;;2.10;91.24
74578;BME280;63173;49.086;33.418;2022-12-31T00:25:48;101214.31;;;1.98;91.31
74578;BME280;63173;49.086;33.418;2022-12-31T00:28:14;101219.84;;;2.03;91.77
74578;BME280;63173;49.086;33.418;2022-12-31T00:30:39;101214.31;;;2.04;91.06
74578;BME280;63173;49.086;33.418;2022-12-31T00:33:04;101216.75;;;2.12;91.56
74578;BME280;63173;49.086;33.418;2022-12-31T00:35:30;101214.31;;;1.98;91.01
74578;BME280;63173;49.086;33.418;2022-12-31T00:37:55;101226.28;;;2.08;90.66
74578;BME280;63173;49.086;33.418;2022-12-31T00:40:21;101225.22;;;2.09;90.88
74578;BME280;63173;49.086;33.418;2022-12-31T00:42:46;101228.72;;;2.10;90.45
74578;BME280;63173;49.086;33.418;2022-12-31T00:45:11;101231.19;;;2.11;90.37
74578;BME280;63173;49.086;33.418;2022-12-31T00:47:37;101238.63;;;2.16;90.83
74578;BME280;63173;49.086;33.418;2022-12-31T00:50:03;101234.50;;;2.13;90.48
74578;BME280;63173;49.086;33.418;2022-12-31T00:52:28;101234.47;;;2.20;90.27
74578;BME280;63173;49.086;33.418;2022-12-31T00:54:54;101236.34;;;2.13;91.02
74578;BME280;63173;49.086;33.418;2022-12-31T00:57:19;101233.06;;;2.04;91.46
74578;BME280;63173;49.086;33.418;2022-12-31T00:59:44;101228.72;;;2.10;91.76
74578;BME280;63173;49.086;33.418;2022-12-31T01:02:10;101240.69;;;2.14;90.93
74578;BME280;63173;49.086;33.418;2022-12-31T01:04:35;101246.28;;;1.92;91.94
74578;BME280;63173;49.086;33.418;2022-12-31T01:07:01;101253.91;;;1.89;92.60
74578;BME280;63173;49.086;33.418;2022-12-31T01:09:26;101243.81;;;1.91;91.96
74578;BME280;63173;49.086;33.418;2022-12-31T01:11:51;101257.41;;;1.96;92.24
74578;BME280;63173;49.086;33.418;2022-12-31T01:14:18;101276.56;;;1.93;92.51
74578;BME280;63173;49.086;33.418;2022-12-31T01:16:47;101259.88;;;1.98;92.58
74578;BME280;63173;49.086;33.418;2022-12-31T01:19:16;101257.41;;;1.96;92.16
74578;BME280;63173;49.086;33.418;2022-12-31T01:21:43;101261.72;;;2.04;92.57
74578;BME280;63173;49.086;33.418;2022-12-31T01:24:10;101258.00;;;2.05;92.43
74578;BME280;63173;49.086;33.418;2022-12-31T01:26:35;101261.72;;;2.04;92.09
74578;BME280;63173;49.086;33.418;2022-12-31T01:29:01;101270.59;;;2.04;92.01
74578;BME280;63173;49.086;33.418;2022-12-31T01:31:27;101268.94;;;1.97;92.75
74578;BME280;63173;49.086;33.418;2022-12-31T01:33:53;101270.16;;;2.07;92.53
74578;BME280;63173;49.086;33.418;2022-12-31T01:36:23;101256.78;;;2.14;92.52
74578;BME280;63173;49.086;33.418;2022-12-31T01:38:49;101260.66;;;2.24;92.56
74578;BME280;63173;49.086;33.418;2022-12-31T01:41:21;101261.06;;;2.28;91.88
74578;BME280;63173;49.086;33.418;2022-12-31T01:48:56;101264.56;;;2.22;91.16
74578;BME280;63173;49.086;33.418;2022-12-31T01:51:22;101264.56;;;2.28;92.09
74578;BME280;63173;49.086;33.418;2022-12-31T01:53:50;101249.94;;;2.24;91.71
74578;BME280;63173;49.086;33.418;2022-12-31T01:56:17;101254.69;;;2.29;91.21
74578;BME280;63173;49.086;33.418;2022-12-31T01:58:46;101256.97;;;2.25;91.67
74578;BME280;63173;49.086;33.418;2022-12-31T02:01:20;101262.28;;;2.38;91.53
74578;BME280;63173;49.086;33.418;2022-12-31T02:03:46;101267.88;;;2.30;91.44
74578;BME280;63173;49.086;33.418;2022-12-31T02:06:26;101266.19;;;2.29;92.51
74578;BME280;63173;49.086;33.418;2022-12-31T02:08:54;101269.53;;;2.25;92.53
74578;BME280;63173;49.086;33.418;2022-12-31T02:11:29;101267.06;;;2.23;93.10
74578;BME280;63173;49.086;33.418;2022-12-31T02:13:58;101270.94;;;2.27;92.17
74578;BME280;63173;49.086;33.418;2022-12-31T02:16:33;101280.63;;;2.35;92.01
74578;BME280;63173;49.086;33.418;2022-12-31T02:21:59;101285.59;;;2.31;92.04
74578;BME280;63173;49.086;33.418;2022-12-31T02:27:07;101282.28;;;2.29;92.14
74578;BME280;63173;49.086;33.418;2022-12-31T02:32:21;101294.06;;;2.22;92.88
74578;BME280;63173;49.086;33.418;2022-12-31T02:34:54;101298.59;;;2.15;92.86
74578;BME280;63173;49.086;33.418;2022-12-31T02:37:23;101303.75;;;2.16;93.37
74578;BME280;63173;49.086;33.418;2022-12-31T02:39:50;101303.97;;;2.15;92.24
74578;BME280;63173;49.086;33.418;2022-12-31T02:42:15;101304.56;;;2.17;92.92
74578;BME280;63173;49.086;33.418;2022-12-31T02:44:41;101310.34;;;2.20;92.93
74578;BME280;63173;49.086;33.418;2022-12-31T02:49:35;101308.28;;;2.22;93.00
74578;BME280;63173;49.086;33.418;2022-12-31T02:52:13;101314.88;;;2.26;92.78
74578;BME280;63173;49.086;33.418;2022-12-31T03:00:03;101321.88;;;2.34;93.10
74578;BME280;63173;49.086;33.418;2022-12-31T03:02:49;101327.03;;;2.35;93.34
74578;BME280;63173;49.086;33.418;2022-12-31T03:05:18;101327.06;;;2.29;92.08
74578;BME280;63173;49.086;33.418;2022-12-31T03:07:45;101332.81;;;2.32;92.28
74578;BME280;63173;49.086;33.418;2022-12-31T03:10:11;101343.34;;;2.34;93.24
74578;BME280;63173;49.086;33.418;2022-12-31T03:12:36;101338.78;;;2.41;91.78
74578;BME280;63173;49.086;33.418;2022-12-31T03:20:18;101339.41;;;2.36;91.99
74578;BME280;63173;49.086;33.418;2022-12-31T03:23:05;101349.09;;;2.37;92.15
74578;BME280;63173;49.086;33.418;2022-12-31T03:25:31;101351.59;;;2.32;92.82
74578;BME280;63173;49.086;33.418;2022-12-31T03:28:10;101350.16;;;2.36;93.40
74578;BME280;63173;49.086;33.418;2022-12-31T03:30:38;101353.66;;;2.30;92.38
74578;BME280;63173;49.086;33.418;2022-12-31T03:33:04;101357.38;;;2.23;93.34
74578;BME280;63173;49.086;33.418;2022-12-31T03:35:32;101364.16;;;2.32;93.09
74578;BME280;63173;49.086;33.418;2022-12-31T03:37:58;101366.00;;;2.31;93.88
74578;BME280;63173;49.086;33.418;2022-12-31T03:40:25;101372.63;;;2.29;93.89
74578;BME280;63173;49.086;33.418;2022-12-31T03:42:51;101369.75;;;2.30;93.47
74578;BME280;63173;49.086;33.418;2022-12-31T03:45:17;101362.09;;;2.27;93.17
74578;BME280;63173;49.086;33.418;2022-12-31T03:47:43;101370.56;;;2.31;93.10
74578;BME280;63173;49.086;33.418;2022-12-31T03:50:10;101373.88;;;2.33;93.99
74578;BME280;63173;49.086;33.418;2022-12-31T03:52:36;101372.81;;;2.34;93.89
74578;BME280;63173;49.086;33.418;2022-12-31T03:55:01;101372.81;;;2.27;93.97
74578;BME280;63173;49.086;33.418;2022-12-31T03:57:27;101378.16;;;2.14;93.53
74578;BME280;63173;49.086;33.418;2022-12-31T03:59:53;101383.94;;;2.18;93.91
74578;BME280;63173;49.086;33.418;2022-12-31T04:02:18;101382.31;;;2.17;94.24
74578;BME280;63173;49.086;33.418;2022-12-31T04:04:44;101382.53;;;2.15;94.29
74578;BME280;63173;49.086;33.418;2022-12-31T04:07:09;101379.22;;;2.13;94.08
74578;BME280;63173;49.086;33.418;2022-12-31T04:09:34;101385.59;;;2.12;94.53
74578;BME280;63173;49.086;33.418;2022-12-31T04:12:00;101387.88;;;2.15;94.51
74578;BME280;63173;49.086;33.418;2022-12-31T04:14:25;101390.94;;;2.12;94.75
74578;BME280;63173;49.086;33.418;2022-12-31T04:16:51;101398.19;;;2.18;94.29
74578;BME280;63173;49.086;33.418;2022-12-31T04:19:16;101398.38;;;2.04;93.66
74578;BME280;63173;49.086;33.418;2022-12-31T04:21:41;101398.97;;;1.99;94.56
74578;BME280;63173;49.086;33.418;2022-12-31T04:24:07;101402.28;;;2.01;94.41
74578;BME280;63173;49.086;33.418;2022-12-31T04:26:33;101398.19;;;1.99;95.39
74578;BME280;63173;49.086;33.418;2022-12-31T04:28:59;101399.22;;;2.04;94.39
74578;BME280;63173;49.086;33.418;2022-12-31T04:31:24;101407.63;;;2.01;95.20
74578;BME280;63173;49.086;33.418;2022-12-31T04:33:49;101403.72;;;1.97;94.69
74578;BME280;63173;49.086;33.418;2022-12-31T04:36:15;101412.78;;;1.96;94.91
74578;BME280;63173;49.086;33.418;2022-12-31T04:38:40;101417.09;;;1.97;94.74
74578;BME280;63173;49.086;33.418;2022-12-31T04:41:06;101421.63;;;1.90;95.17
74578;BME280;63173;49.086;33.418;2022-12-31T04:43:56;101419.16;;;1.88;95.72
74578;BME280;63173;49.086;33.418;2022-12-31T04:46:23;101414.66;;;1.89;95.53
74578;BME280;63173;49.086;33.418;2022-12-31T04:48:49;101417.94;;;1.91;95.89
74578;BME280;63173;49.086;33.418;2022-12-31T04:51:15;101415.22;;;1.78;95.46
74578;BME280;63173;49.086;33.418;2022-12-31T04:53:41;101414.63;;;1.76;96.11
74578;BME280;63173;49.086;33.418;2022-12-31T04:56:07;101411.72;;;1.77;95.99
74578;BME280;63173;49.086;33.418;2022-12-31T04:58:33;101432.28;;;1.70;96.46
74578;BME280;63173;49.086;33.418;2022-12-31T05:00:59;101427.75;;;1.64;96.51
74578;BME280;63173;49.086;33.418;2022-12-31T05:03:26;101436.44;;;1.73;96.86
74578;BME280;63173;49.086;33.418;2022-12-31T05:05:52;101439.66;;;1.55;96.17
74578;BME280;63173;49.086;33.418;2022-12-31T05:08:18;101441.03;;;1.38;96.73
74578;BME280;63173;49.086;33.418;2022-12-31T05:10:46;101446.84;;;1.42;96.98
74578;BME280;63173;49.086;33.418;2022-12-31T05:13:12;101456.00;;;1.26;98.04
74578;BME280;63173;49.086;33.418;2022-12-31T05:15:38;101467.50;;;1.20;98.38
74578;BME280;63173;49.086;33.418;2022-12-31T05:18:04;101464.63;;;1.22;99.02
74578;BME280;63173;49.086;33.418;2022-12-31T05:20:29;101474.81;;;1.05;99.32
74578;BME280;63173;49.086;33.418;2022-12-31T05:22:55;101478.56;;;1.11;99.75
74578;BME280;63173;49.086;33.418;2022-12-31T05:25:20;101474.38;;;1.02;100.00
74578;BME280;63173;49.086;33.418;2022-12-31T05:27:46;101465.75;;;1.06;100.00
74578;BME280;63173;49.086;33.418;2022-12-31T05:30:11;101470.13;;;1.14;100.00
74578;BME280;63173;49.086;33.418;2022-12-31T05:32:37;101477.06;;;1.02;100.00
74578;BME280;63173;49.086;33.418;2022-12-31T05:35:03;101474.41;;;1.08;100.00
74578;BME280;63173;49.086;33.418;2022-12-31T05:37:29;101477.97;;;1.15;100.00
74578;BME280;63173;49.086;33.418;2022-12-31T05:39:55;101490.28;;;1.10;100.00
74578;BME280;63173;49.086;33.418;2022-12-31T05:42:21;101485.56;;;1.12;100.00
74578;BME280;63173;49.086;33.418;2022-12-31T05:44:46;101482.28;;;1.16;100.00
74578;BME280;63173;49.086;33.418;2022-12-31T05:47:12;101500.44;;;1.21;100.00
74578;BME280;63173;49.086;33.418;2022-12-31T05:49:37;101495.47;;;1.18;99.94
74578;BME280;63173;49.086;33.418;2022-12-31T05:52:03;101497.13;;;1.19;99.81
74578;BME280;63173;49.086;33.418;2022-12-31T05:54:28;101507.31;;;1.02;100.00
74578;BME280;63173;49.086;33.418;2022-12-31T05:56:53;101506.09;;;1.05;99.82
74578;BME280;63173;49.086;33.418;2022-12-31T05:59:19;101513.34;;;1.11;99.54
74578;BME280;63173;49.086;33.418;2022-12-31T06:01:44;101517.06;;;1.16;100.00
74578;BME280;63173;49.086;33.418;2022-12-31T06:04:10;101530.47;;;1.16;100.00
74578;BME280;63173;49.086;33.418;2022-12-31T06:06:35;101527.97;;;1.15;100.00
74578;BME280;63173;49.086;33.418;2022-12-31T06:09:01;101525.34;;;1.21;100.00
74578;BME280;63173;49.086;33.418;2022-12-31T06:11:27;101524.69;;;1.13;100.00
74578;BME280;63173;49.086;33.418;2022-12-31T06:13:52;101532.94;;;1.18;100.00
74578;BME280;63173;49.086;33.418;2022-12-31T06:16:17;101537.28;;;1.19;100.00
74578;BME280;63173;49.086;33.418;2022-12-31T06:18:46;101539.25;;;1.10;100.00
74578;BME280;63173;49.086;33.418;2022-12-31T06:21:11;101546.72;;;1.15;100.00
74578;BME280;63173;49.086;33.418;2022-12-31T06:23:39;101559.53;;;1.19;100.00
74578;BME280;63173;49.086;33.418;2022-12-31T06:26:05;101569.97;;;1.14;100.00
74578;BME280;63173;49.086;33.418;2022-12-31T06:28:31;101561.78;;;1.22;100.00
74578;BME280;63173;49.086;33.418;2022-12-31T06:31:02;101581.81;;;1.26;100.00
74578;BME280;63173;49.086;33.418;2022-12-31T06:33:28;101581.09;;;1.18;100.00
74578;BME280;63173;49.086;33.418;2022-12-31T06:35:55;101579.06;;;1.20;100.00
74578;BME280;63173;49.086;33.418;2022-12-31T06:38:21;101583.66;;;1.26;100.00
74578;BME280;63173;49.086;33.418;2022-12-31T06:40:47;101595.88;;;1.14;100.00
74578;BME280;63173;49.086;33.418;2022-12-31T06:43:12;101596.19;;;1.25;100.00
74578;BME280;63173;49.086;33.418;2022-12-31T06:45:37;101593.03;;;1.15;100.00
74578;BME280;63173;49.086;33.418;2022-12-31T06:48:04;101598.28;;;1.30;100.00
74578;BME280;63173;49.086;33.418;2022-12-31T06:50:29;101606.38;;;1.36;100.00
74578;BME280;63173;49.086;33.418;2022-12-31T06:52:55;101601.69;;;1.45;100.00
74578;BME280;63173;49.086;33.418;2022-12-31T06:55:20;101604.59;;;1.50;100.00
74578;BME280;63173;49.086;33.418;2022-12-31T06:57:46;101591.19;;;1.43;100.00
74578;BME280;63173;49.086;33.418;2022-12-31T07:00:12;101597.84;;;1.54;100.00
74578;BME280;63173;49.086;33.418;2022-12-31T07:02:57;101600.66;;;1.46;100.00
74578;BME280;63173;49.086;33.418;2022-12-31T07:09:08;101620.88;;;1.48;100.00
74578;BME280;63173;49.086;33.418;2022-12-31T07:12:19;101629.53;;;1.50;100.00
74578;BME280;63173;49.086;33.418;2022-12-31T07:14:45;101636.50;;;1.45;100.00
74578;BME280;63173;49.086;33.418;2022-12-31T07:20:11;101635.53;;;1.52;100.00
74578;BME280;63173;49.086;33.418;2022-12-31T07:22:37;101623.44;;;1.63;100.00
74578;BME280;63173;49.086;33.418;2022-12-31T07:25:03;101634.13;;;1.56;100.00
74578;BME280;63173;49.086;33.418;2022-12-31T07:30:15;101633.78;;;1.66;100.00
74578;BME280;63173;49.086;33.418;2022-12-31T07:35:29;101631.63;;;1.55;100.00
74578;BME280;63173;49.086;33.418;2022-12-31T07:46:54;101645.91;;;1.62;100.00
74578;BME280;63173;49.086;33.418;2022-12-31T07:48:54;101637.81;;;1.55;100.00
74578;BME280;63173;49.086;33.418;2022-12-31T07:51:20;101629.47;;;1.71;100.00
74578;BME280;63173;49.086;33.418;2022-12-31T07:53:45;101632.03;;;1.86;100.00
74578;BME280;63173;49.086;33.418;2022-12-31T07:56:12;101628.50;;;1.79;100.00
74578;BME280;63173;49.086;33.418;2022-12-31T08:01:46;101630.75;;;1.82;99.60
74578;BME280;63173;49.086;33.418;2022-12-31T08:07:40;101630.66;;;1.97;99.63
74578;BME280;63173;49.086;33.418;2022-12-31T08:12:48;101638.28;;;2.00;99.11
74578;BME280;63173;49.086;33.418;2022-12-31T08:15:18;101641.34;;;1.90;99.15
74578;BME280;63173;49.086;33.418;2022-12-31T08:17:44;101639.22;;;1.79;99.18
74578;BME280;63173;49.086;33.418;2022-12-31T08:20:16;101657.91;;;1.72;99.52
74578;BME280;63173;49.086;33.418;2022-12-31T08:23:00;101653.59;;;1.71;99.53
74578;BME280;63173;49.086;33.418;2022-12-31T08:28:23;101642.75;;;1.86;99.55
74578;BME280;63173;49.086;33.418;2022-12-31T08:31:07;101646.03;;;1.81;99.47
74578;BME280;63173;49.086;33.418;2022-12-31T08:36:10;101649.22;;;1.70;100.00
74578;BME280;63173;49.086;33.418;2022-12-31T08:38:44;101650.13;;;1.77;99.54
74578;BME280;63173;49.086;33.418;2022-12-31T08:49:33;101634.75;;;1.92;99.58
74578;BME280;63173;49.086;33.418;2022-12-31T08:52:00;101637.22;;;1.94;99.05
74578;BME280;63173;49.086;33.418;2022-12-31T08:54:27;101635.75;;;1.85;99.38
74578;BME280;63173;49.086;33.418;2022-12-31T08:59:37;101630.53;;;1.77;99.88
74578;BME280;63173;49.086;33.418;2022-12-31T09:04:54;101631.41;;;1.84;99.32
74578;BME280;63173;49.086;33.418;2022-12-31T09:07:37;101639.69;;;1.89;99.10
74578;BME280;63173;49.086;33.418;2022-12-31T09:18:37;101635.75;;;1.85;99.70
74578;BME280;63173;49.086;33.418;2022-12-31T09:21:04;101633.56;;;2.02;98.93
74578;BME280;63173;49.086;33.418;2022-12-31T09:23:29;101636.09;;;2.10;99.85
74578;BME280;63173;49.086;33.418;2022-12-31T09:26:14;101634.81;;;2.06;98.80
74578;BME280;63173;49.086;33.418;2022-12-31T09:36:51;101622.69;;;2.10;98.51
74578;BME280;63173;49.086;33.418;2022-12-31T09:39:36;101620.28;;;2.28;99.60
74578;BME280;63173;49.086;33.418;2022-12-31T09:47:42;101612.53;;;2.52;99.14
74578;BME280;63173;49.086;33.418;2022-12-31T09:58:50;101603.19;;;2.29;100.00
74578;BME280;63173;49.086;33.418;2022-12-31T10:01:36;101605.72;;;2.56;99.02
74578;BME280;63173;49.086;33.418;2022-12-31T10:35:52;101600.72;;;2.34;98.66
74578;BME280;63173;49.086;33.418;2022-12-31T10:44:17;101591.69;;;2.54;99.92
74578;BME280;63173;49.086;33.418;2022-12-31T11:12:40;101581.56;;;2.43;100.00
74578;BME280;63173;49.086;33.418;2022-12-31T11:18:26;101589.44;;;2.64;100.00
74578;BME280;63173;49.086;33.418;2022-12-31T11:23:43;101574.22;;;2.78;99.83
74578;BME280;63173;49.086;33.418;2022-12-31T11:35:00;101577.03;;;2.44;100.00
74578;BME280;63173;49.086;33.418;2022-12-31T11:37:36;101584.44;;;2.48;100.00
74578;BME280;63173;49.086;33.418;2022-12-31T11:49:45;101603.78;;;2.24;100.00
74578;BME280;63173;49.086;33.418;2022-12-31T12:00:11;101602.50;;;2.87;98.87
74578;BME280;63173;49.086;33.418;2022-12-31T12:02:43;101604.44;;;2.39;98.91
74578;BME280;63173;49.086;33.418;2022-12-31T12:05:13;101603.19;;;2.29;99.88
74578;BME280;63173;49.086;33.418;2022-12-31T12:07:40;101600.19;;;2.77;99.57
74578;BME280;63173;49.086;33.418;2022-12-31T12:12:46;101603.84;;;2.44;99.72
74578;BME280;63173;49.086;33.418;2022-12-31T12:15:20;101607.06;;;2.26;99.93
74578;BME280;63173;49.086;33.418;2022-12-31T12:17:50;101617.63;;;2.41;99.43
74578;BME280;63173;49.086;33.418;2022-12-31T12:20:36;101623.50;;;2.10;100.00
74578;BME280;63173;49.086;33.418;2022-12-31T12:23:19;101626.38;;;2.02;100.00
74578;BME280;63173;49.086;33.418;2022-12-31T12:25:46;101614.06;;;2.27;100.00
74578;BME280;63173;49.086;33.418;2022-12-31T12:30:43;65943.25;;;-139.78;100.00
74578;BME280;63173;49.086;33.418;2022-12-31T12:33:17;65943.25;;;-139.78;100.00
74578;BME280;63173;49.086;33.418;2022-12-31T12:35:44;65943.25;;;-139.78;100.00
74578;BME280;63173;49.086;33.418;2022-12-31T12:40:40;65943.25;;;-139.78;100.00
74578;BME280;63173;49.086;33.418;2022-12-31T12:43:20;65943.25;;;-139.78;100.00
74578;BME280;63173;49.086;33.418;2022-12-31T12:45:46;65943.25;;;-139.78;100.00
74578;BME280;63173;49.086;33.418;2022-12-31T12:48:19;65943.25;;;-139.78;100.00
74578;BME280;63173;49.086;33.418;2022-12-31T12:50:47;65943.25;;;-139.78;100.00
74578;BME280;63173;49.086;33.418;2022-12-31T12:56:27;65943.25;;;-139.78;100.00
74578;BME280;63173;49.086;33.418;2022-12-31T13:04:54;65943.25;;;-139.78;100.00
74578;BME280;63173;49.086;33.418;2022-12-31T13:13:15;65943.25;;;-139.78;100.00
74578;BME280;63173;49.086;33.418;2022-12-31T13:15:46;65943.25;;;-139.78;100.00
74578;BME280;63173;49.086;33.418;2022-12-31T13:23:48;65943.25;;;-139.78;100.00
74578;BME280;63173;49.086;33.418;2022-12-31T13:28:54;65943.25;;;-139.78;100.00
74578;BME280;63173;49.086;33.418;2022-12-31T13:31:26;65943.25;;;-139.78;100.00
74578;BME280;63173;49.086;33.418;2022-12-31T13:33:58;65943.25;;;-139.78;100.00
74578;BME280;63173;49.086;33.418;2022-12-31T13:36:26;65943.25;;;-139.78;100.00
74578;BME280;63173;49.086;33.418;2022-12-31T13:39:01;65943.25;;;-139.78;100.00
74578;BME280;63173;49.086;33.418;2022-12-31T13:41:41;65943.25;;;-139.78;100.00
74578;BME280;63173;49.086;33.418;2022-12-31T13:51:49;65943.25;;;-139.78;100.00
74578;BME280;63173;49.086;33.418;2022-12-31T13:56:59;65943.25;;;-139.78;100.00
74578;BME280;63173;49.086;33.418;2022-12-31T13:59:38;65943.25;;;-139.78;100.00
74578;BME280;63173;49.086;33.418;2022-12-31T14:02:46;65943.25;;;-139.78;100.00
74578;BME280;63173;49.086;33.418;2022-12-31T14:08:00;65943.25;;;-139.78;100.00
74578;BME280;63173;49.086;33.418;2022-12-31T14:19:28;65943.25;;;-139.78;100.00
74578;BME280;63173;49.086;33.418;2022-12-31T14:24:43;65943.25;;;-139.78;100.00
74578;BME280;63173;49.086;33.418;2022-12-31T14:27:34;65943.25;;;-139.78;100.00
74578;BME280;63173;49.086;33.418;2022-12-31T14:30:03;65943.25;;;-139.78;100.00
74578;BME280;63173;49.086;33.418;2022-12-31T14:54:35;65943.25;;;-139.78;100.00
74578;BME280;63173;49.086;33.418;2022-12-31T14:57:20;65943.25;;;-139.78;100.00
74578;BME280;63173;49.086;33.418;2022-12-31T14:59:58;65943.25;;;-139.78;100.00
74578;BME280;63173;49.086;33.418;2022-12-31T15:02:33;65943.25;;;-139.78;100.00
74578;BME280;63173;49.086;33.418;2022-12-31T15:05:21;65943.25;;;-139.78;100.00
74578;BME280;63173;49.086;33.418;2022-12-31T15:10:25;65943.25;;;-139.78;100.00
74578;BME280;63173;49.086;33.418;2022-12-31T15:13:12;65943.25;;;-139.78;100.00
74578;BME280;63173;49.086;33.418;2022-12-31T15:23:38;65943.25;;;-139.78;100.00
74578;BME280;63173;49.086;33.418;2022-12-31T15:26:19;65943.25;;;-139.78;100.00
74578;BME280;63173;49.086;33.418;2022-12-31T15:28:58;65943.25;;;-139.78;100.00
74578;BME280;63173;49.086;33.418;2022-12-31T15:31:25;65943.25;;;-139.78;100.00
74578;BME280;63173;49.086;33.418;2022-12-31T15:34:23;65943.25;;;-139.78;100.00
74578;BME280;63173;49.086;33.418;2022-12-31T15:36:54;65943.25;;;-139.78;100.00
74578;BME280;63173;49.086;33.418;2022-12-31T15:41:51;65943.25;;;-139.78;100.00
74578;BME280;63173;49.086;33.418;2022-12-31T15:47:28;65943.25;;;-139.78;100.00
74578;BME280;63173;49.086;33.418;2022-12-31T15:49:54;65943.25;;;-139.78;100.00
74578;BME280;63173;49.086;33.418;2022-12-31T15:52:28;65943.25;;;-139.78;100.00
74578;BME280;63173;49.086;33.418;2022-12-31T15:54:56;65943.25;;;-139.78;100.00
74578;BME280;63173;49.086;33.418;2022-12-31T15:57:33;65943.25;;;-139.78;100.00
74578;BME280;63173;49.086;33.418;2022-12-31T16:00:05;65943.25;;;-139.78;100.00
74578;BME280;63173;49.086;33.418;2022-12-31T16:02:32;65943.25;;;-139.78;100.00
74578;BME280;63173;49.086;33.418;2022-12-31T16:04:57;65943.25;;;-139.78;100.00
74578;BME280;63173;49.086;33.418;2022-12-31T16:07:23;65943.25;;;-139.78;100.00
74578;BME280;63173;49.086;33.418;2022-12-31T16:09:56;65943.25;;;-139.78;100.00
74578;BME280;63173;49.086;33.418;2022-12-31T16:12:25;65943.25;;;-139.78;100.00
74578;BME280;63173;49.086;33.418;2022-12-31T16:14:54;65943.25;;;-139.78;100.00
74578;BME280;63173;49.086;33.418;2022-12-31T16:17:32;65943.25;;;-139.78;100.00
74578;BME280;63173;49.086;33.418;2022-12-31T16:19:59;65943.25;;;-139.78;100.00
74578;BME280;63173;49.086;33.418;2022-12-31T16:22:38;65943.25;;;-139.78;100.00
74578;BME280;63173;49.086;33.418;2022-12-31T16:25:05;65943.25;;;-139.78;100.00
74578;BME280;63173;49.086;33.418;2022-12-31T16:27:33;65943.25;;;-139.78;100.00
74578;BME280;63173;49.086;33.418;2022-12-31T16:30:03;65943.25;;;-139.78;100.00
74578;BME280;63173;49.086;33.418;2022-12-31T16:32:36;65943.25;;;-139.78;100.00
74578;BME280;63173;49.086;33.418;2022-12-31T16:35:03;65943.25;;;-139.78;100.00
74578;BME280;63173;49.086;33.418;2022-12-31T16:37:43;65943.25;;;-139.78;100.00
74578;BME280;63173;49.086;33.418;2022-12-31T16:40:20;65943.25;;;-139.78;100.00
74578;BME280;63173;49.086;33.418;2022-12-31T16:42:46;65943.25;;;-139.78;100.00
74578;BME280;63173;49.086;33.418;2022-12-31T16:45:38;65943.25;;;-139.78;100.00
74578;BME280;63173;49.086;33.418;2022-12-31T16:48:08;65943.25;;;-139.78;100.00
74578;BME280;63173;49.086;33.418;2022-12-31T16:50:37;65943.25;;;-139.78;100.00
74578;BME280;63173;49.086;33.418;2022-12-31T16:53:06;65943.25;;;-139.78;100.00
74578;BME280;63173;49.086;33.418;2022-12-31T16:55:33;65943.25;;;-139.78;100.00
74578;BME280;63173;49.086;33.418;2022-12-31T16:58:14;65943.25;;;-139.78;100.00
74578;BME280;63173;49.086;33.418;2022-12-31T17:00:41;65943.25;;;-139.78;100.00
74578;BME280;63173;49.086;33.418;2022-12-31T17:05:33;65943.25;;;-139.78;100.00
74578;BME280;63173;49.086;33.418;2022-12-31T17:08:38;65943.25;;;-139.78;100.00
74578;BME280;63173;49.086;33.418;2022-12-31T17:11:04;65943.25;;;-139.78;100.00
74578;BME280;63173;49.086;33.418;2022-12-31T17:13:33;65943.25;;;-139.78;100.00
74578;BME280;63173;49.086;33.418;2022-12-31T17:15:59;65943.25;;;-139.78;100.00
74578;BME280;63173;49.086;33.418;2022-12-31T17:18:30;65943.25;;;-139.78;100.00
74578;BME280;63173;49.086;33.418;2022-12-31T17:21:05;65943.25;;;-139.78;100.00
74578;BME280;63173;49.086;33.418;2022-12-31T17:23:34;65943.25;;;-139.78;100.00
74578;BME280;63173;49.086;33.418;2022-12-31T17:26:12;65943.25;;;-139.78;100.00
74578;BME280;63173;49.086;33.418;2022-12-31T17:28:44;65943.25;;;-139.78;100.00
74578;BME280;63173;49.086;33.418;2022-12-31T17:34:17;65943.25;;;-139.78;100.00
74578;BME280;63173;49.086;33.418;2022-12-31T17:36:59;65943.25;;;-139.78;100.00
74578;BME280;63173;49.086;33.418;2022-12-31T17:39:26;65943.25;;;-139.78;100.00
74578;BME280;63173;49.086;33.418;2022-12-31T17:42:03;65943.25;;;-139.78;100.00
74578;BME280;63173;49.086;33.418;2022-12-31T17:44:30;65943.25;;;-139.78;100.00
74578;BME280;63173;49.086;33.418;2022-12-31T17:46:57;65943.25;;;-139.78;100.00
74578;BME280;63173;49.086;33.418;2022-12-31T17:49:28;65943.25;;;-139.78;100.00
74578;BME280;63173;49.086;33.418;2022-12-31T17:51:54;65943.25;;;-139.78;100.00
74578;BME280;63173;49.086;33.418;2022-12-31T17:54:20;65943.25;;;-139.78;100.00